createdAt,value
2022-12-05T00:00:47.864Z,16.10
2022-12-05T00:01:47.892Z,13.60
2022-12-05T00:02:47.835Z,13.80
2022-12-05T00:03:47.914Z,12.90
2022-12-05T00:04:47.829Z,13.60
2022-12-05T00:05:47.803Z,12.20
2022-12-05T00:06:47.788Z,13.70
2022-12-05T00:07:47.899Z,14.40
2022-12-05T00:08:47.769Z,13.40
2022-12-05T00:09:47.783Z,11.90
2022-12-05T00:10:47.748Z,13.30
2022-12-05T00:11:47.736Z,11.20
2022-12-05T00:12:47.720Z,12.20
2022-12-05T00:13:47.713Z,12.80
2022-12-05T00:14:47.721Z,11.70
2022-12-05T00:15:47.695Z,12.60
2022-12-05T00:16:47.729Z,12.20
2022-12-05T00:17:47.672Z,12.00
2022-12-05T00:18:47.664Z,12.00
2022-12-05T00:19:49.960Z,11.40
2022-12-05T00:20:47.652Z,12.50
2022-12-05T00:21:47.626Z,10.50
2022-12-05T00:22:47.611Z,12.40
2022-12-05T00:23:47.600Z,10.70
2022-12-05T00:24:47.590Z,9.40
2022-12-05T00:25:47.605Z,10.70
2022-12-05T00:26:47.571Z,10.70
2022-12-05T00:27:47.559Z,11.80
2022-12-05T00:28:47.545Z,9.20
2022-12-05T00:29:47.534Z,12.00
2022-12-05T00:30:47.538Z,11.00
2022-12-05T00:31:47.581Z,14.50
2022-12-05T00:32:47.522Z,12.20
2022-12-05T00:33:47.501Z,12.30
2022-12-05T00:34:47.479Z,12.10
2022-12-05T00:35:47.501Z,12.30
2022-12-05T00:36:47.455Z,12.20
2022-12-05T00:37:47.469Z,8.20
2022-12-05T00:38:47.434Z,11.40
2022-12-05T00:39:47.430Z,10.20
2022-12-05T00:40:47.416Z,9.40
2022-12-05T00:41:47.414Z,12.00
2022-12-05T00:42:52.119Z,10.40
2022-12-05T00:43:48.428Z,10.70
2022-12-05T00:44:47.365Z,11.00
2022-12-05T00:45:47.394Z,10.70
2022-12-05T00:46:47.362Z,9.90
2022-12-05T00:47:47.346Z,9.40
2022-12-05T00:48:47.349Z,11.10
2022-12-05T00:49:47.317Z,8.50
2022-12-05T00:50:47.302Z,11.70
2022-12-05T00:51:47.322Z,10.40
2022-12-05T00:52:47.276Z,8.60
2022-12-05T00:53:47.290Z,9.00
2022-12-05T00:54:47.261Z,12.50
2022-12-05T00:55:47.247Z,10.00
2022-12-05T00:56:47.234Z,11.70
2022-12-05T00:57:47.249Z,9.60
2022-12-05T00:58:47.210Z,9.40
2022-12-05T00:59:47.213Z,7.80
2022-12-05T01:00:47.289Z,9.20
2022-12-05T01:01:47.294Z,11.00
2022-12-05T01:02:47.233Z,12.20
2022-12-05T01:03:47.165Z,8.60
2022-12-05T01:04:47.142Z,10.20
2022-12-05T01:05:47.164Z,11.20
2022-12-05T01:06:47.122Z,11.00
2022-12-05T01:07:47.184Z,10.20
2022-12-05T01:08:47.102Z,10.80
2022-12-05T01:09:47.118Z,11.60
2022-12-05T01:10:47.134Z,11.70
2022-12-05T01:11:47.078Z,12.60
2022-12-05T01:12:47.054Z,10.20
2022-12-05T01:13:47.060Z,10.60
2022-12-05T01:14:47.060Z,12.20
2022-12-05T01:15:47.026Z,10.50
2022-12-05T01:16:47.094Z,9.40
2022-12-05T01:17:47.008Z,11.10
2022-12-05T01:18:47.014Z,11.10
2022-12-05T01:19:47.007Z,9.70
2022-12-05T01:20:46.969Z,10.80
2022-12-05T01:21:46.960Z,10.60
2022-12-05T01:22:46.947Z,10.20
2022-12-05T01:23:46.983Z,11.00
2022-12-05T01:24:46.954Z,10.20
2022-12-05T01:25:46.911Z,9.50
2022-12-05T01:26:46.901Z,9.70
2022-12-05T01:27:46.913Z,11.40
2022-12-05T01:28:46.942Z,12.10
2022-12-05T01:29:46.890Z,11.80
2022-12-05T01:30:46.861Z,10.70
2022-12-05T01:31:46.906Z,11.10
2022-12-05T01:32:46.864Z,10.60
2022-12-05T01:33:46.821Z,9.70
2022-12-05T01:34:46.847Z,8.30
2022-12-05T01:35:46.807Z,8.50
2022-12-05T01:36:46.820Z,10.10
2022-12-05T01:37:46.808Z,10.10
2022-12-05T01:38:46.780Z,10.60
2022-12-05T01:39:46.777Z,10.90
2022-12-05T01:40:46.747Z,10.00
2022-12-05T01:41:46.779Z,10.20
2022-12-05T01:42:46.727Z,11.70
2022-12-05T01:43:46.712Z,11.20
2022-12-05T01:44:46.704Z,10.40
2022-12-05T01:45:46.808Z,10.00
2022-12-05T01:46:46.683Z,11.00
2022-12-05T01:47:46.696Z,9.60
2022-12-05T01:48:46.661Z,9.60
2022-12-05T01:49:46.646Z,9.70
2022-12-05T01:50:46.662Z,9.90
2022-12-05T01:51:46.623Z,11.00
2022-12-05T01:52:46.643Z,12.40
2022-12-05T01:53:46.621Z,10.00
2022-12-05T01:54:46.596Z,11.00
2022-12-05T01:55:46.601Z,11.40
2022-12-05T01:56:46.598Z,11.10
2022-12-05T01:57:46.583Z,10.20
2022-12-05T01:58:46.551Z,10.20
2022-12-05T01:59:46.532Z,11.50
2022-12-05T02:00:46.602Z,11.30
2022-12-05T02:01:46.590Z,10.90
2022-12-05T02:02:46.588Z,8.60
2022-12-05T02:03:46.491Z,10.70
2022-12-05T02:04:46.482Z,8.80
2022-12-05T02:05:46.469Z,10.50
2022-12-05T02:06:46.461Z,10.50
2022-12-05T02:07:46.545Z,8.00
2022-12-05T02:08:46.436Z,10.10
2022-12-05T02:09:46.424Z,9.60
2022-12-05T02:10:46.416Z,10.60
2022-12-05T02:11:46.421Z,13.10
2022-12-05T02:12:46.418Z,9.70
2022-12-05T02:13:46.387Z,10.30
2022-12-05T02:14:46.375Z,11.60
2022-12-05T02:15:46.380Z,9.40
2022-12-05T02:16:46.413Z,10.70
2022-12-05T02:17:46.333Z,11.50
2022-12-05T02:18:46.326Z,10.60
2022-12-05T02:19:46.309Z,8.80
2022-12-05T02:20:46.340Z,9.50
2022-12-05T02:21:46.290Z,10.50
2022-12-05T02:22:46.286Z,9.80
2022-12-05T02:23:46.275Z,9.00
2022-12-05T02:24:46.266Z,11.40
2022-12-05T02:25:46.270Z,9.40
2022-12-05T02:26:46.240Z,9.00
2022-12-05T02:27:46.244Z,10.30
2022-12-05T02:28:46.216Z,9.70
2022-12-05T02:29:46.223Z,11.10
2022-12-05T02:30:46.192Z,9.50
2022-12-05T02:31:46.224Z,8.10
2022-12-05T02:32:46.173Z,9.60
2022-12-05T02:33:46.187Z,8.70
2022-12-05T02:34:46.155Z,10.10
2022-12-05T02:35:46.159Z,8.30
2022-12-05T02:36:46.143Z,8.40
2022-12-05T02:37:46.111Z,11.00
2022-12-05T02:38:46.108Z,10.30
2022-12-05T02:39:46.121Z,9.10
2022-12-05T02:40:46.084Z,9.50
2022-12-05T02:41:46.071Z,12.40
2022-12-05T02:42:46.059Z,8.70
2022-12-05T02:43:46.068Z,10.00
2022-12-05T02:44:46.073Z,9.50
2022-12-05T02:45:46.071Z,8.90
2022-12-05T02:46:46.019Z,9.80
2022-12-05T02:47:46.002Z,10.60
2022-12-05T02:48:46.022Z,10.60
2022-12-05T02:49:45.977Z,9.20
2022-12-05T02:50:45.971Z,7.80
2022-12-05T02:51:45.981Z,9.60
2022-12-05T02:52:45.950Z,9.20
2022-12-05T02:53:45.973Z,8.70
2022-12-05T02:54:45.931Z,7.90
2022-12-05T02:55:45.911Z,8.90
2022-12-05T02:56:45.904Z,10.60
2022-12-05T02:57:45.890Z,7.90
2022-12-05T02:58:45.881Z,7.50
2022-12-05T02:59:45.912Z,9.10
2022-12-05T03:00:45.892Z,7.40
2022-12-05T03:01:45.881Z,9.10
2022-12-05T03:02:45.832Z,9.60
2022-12-05T03:03:45.903Z,8.00
2022-12-05T03:04:45.892Z,8.20
2022-12-05T03:05:45.797Z,9.70
2022-12-05T03:06:45.791Z,10.30
2022-12-05T03:07:45.869Z,10.70
2022-12-05T03:08:45.769Z,9.70
2022-12-05T03:09:45.782Z,8.40
2022-12-05T03:10:45.748Z,9.10
2022-12-05T03:11:45.729Z,8.50
2022-12-05T03:12:45.730Z,9.80
2022-12-05T03:13:45.730Z,7.80
2022-12-05T03:14:45.711Z,9.00
2022-12-05T03:15:45.708Z,9.90
2022-12-05T03:16:45.788Z,10.20
2022-12-05T03:17:45.662Z,8.00
2022-12-05T03:18:45.684Z,8.70
2022-12-05T03:19:45.638Z,9.10
2022-12-05T03:20:45.653Z,8.90
2022-12-05T03:21:45.619Z,8.10
2022-12-05T03:22:45.634Z,8.20
2022-12-05T03:23:45.597Z,8.20
2022-12-05T03:24:45.598Z,9.50
2022-12-05T03:25:46.054Z,8.60
2022-12-05T03:26:45.748Z,7.80
2022-12-05T03:27:45.554Z,9.00
2022-12-05T03:28:45.546Z,8.70
2022-12-05T03:29:45.532Z,7.50
2022-12-05T03:30:45.570Z,7.60
2022-12-05T03:31:45.566Z,9.20
2022-12-05T03:32:45.505Z,8.60
2022-12-05T03:33:45.537Z,8.80
2022-12-05T03:34:45.478Z,8.20
2022-12-05T03:35:45.463Z,8.20
2022-12-05T03:36:45.465Z,10.20
2022-12-05T03:37:45.476Z,9.20
2022-12-05T03:38:45.436Z,8.70
2022-12-05T03:39:45.463Z,8.90
2022-12-05T03:40:45.414Z,11.20
2022-12-05T03:41:45.399Z,9.40
2022-12-05T03:42:45.393Z,8.40
2022-12-05T03:43:45.380Z,9.30
2022-12-05T03:44:45.393Z,7.60
2022-12-05T03:45:45.389Z,9.10
2022-12-05T03:46:45.352Z,7.60
2022-12-05T03:47:45.356Z,10.30
2022-12-05T03:48:45.326Z,9.10
2022-12-05T03:49:45.345Z,9.10
2022-12-05T03:50:45.302Z,8.40
2022-12-05T03:51:45.287Z,8.70
2022-12-05T03:53:11.422Z,8.60
2022-12-05T03:53:46.265Z,11.00
2022-12-05T03:54:45.268Z,8.50
2022-12-05T03:55:45.252Z,8.20
2022-12-05T03:56:45.241Z,9.10
2022-12-05T03:57:45.223Z,7.90
2022-12-05T03:58:45.241Z,8.40
2022-12-05T03:59:45.202Z,8.20
2022-12-05T04:00:45.214Z,9.80
2022-12-05T04:01:45.258Z,9.20
2022-12-05T04:02:45.185Z,10.20
2022-12-05T04:03:45.236Z,10.40
2022-12-05T04:04:45.174Z,7.00
2022-12-05T04:05:45.132Z,9.70
2022-12-05T04:06:45.123Z,9.80
2022-12-05T04:07:45.242Z,9.10
2022-12-05T04:08:45.139Z,8.60
2022-12-05T04:09:45.088Z,8.60
2022-12-05T04:10:45.082Z,9.30
2022-12-05T04:11:45.067Z,8.90
2022-12-05T04:12:45.106Z,8.50
2022-12-05T04:13:45.041Z,8.60
2022-12-05T04:14:45.044Z,7.40
2022-12-05T04:15:45.048Z,8.70
2022-12-05T04:16:45.032Z,11.20
2022-12-05T04:17:46.987Z,7.60
2022-12-05T04:18:46.018Z,8.10
2022-12-05T04:19:45.001Z,9.60
2022-12-05T04:20:44.974Z,8.20
2022-12-05T04:21:44.958Z,9.60
2022-12-05T04:22:44.986Z,7.70
2022-12-05T04:23:47.870Z,9.00
2022-12-05T04:24:44.961Z,8.40
2022-12-05T04:25:44.938Z,7.90
2022-12-05T04:26:44.904Z,9.50
2022-12-05T04:27:44.893Z,9.70
2022-12-05T04:28:44.882Z,8.20
2022-12-05T04:29:44.870Z,8.10
2022-12-05T04:30:44.945Z,8.20
2022-12-05T04:31:44.869Z,7.90
2022-12-05T04:32:44.847Z,7.20
2022-12-05T04:33:44.850Z,9.90
2022-12-05T04:34:44.818Z,8.50
2022-12-05T04:35:44.941Z,9.30
2022-12-05T04:36:44.798Z,8.50
2022-12-05T04:37:44.779Z,7.30
2022-12-05T04:38:44.775Z,9.10
2022-12-05T04:39:44.765Z,9.20
2022-12-05T04:40:44.788Z,7.10
2022-12-05T04:41:44.776Z,6.70
2022-12-05T04:42:44.729Z,8.80
2022-12-05T04:43:44.716Z,7.10
2022-12-05T04:44:44.710Z,9.60
2022-12-05T04:45:44.691Z,8.90
2022-12-05T04:46:44.786Z,9.20
2022-12-05T04:47:44.700Z,9.20
2022-12-05T04:48:44.668Z,8.70
2022-12-05T04:49:49.225Z,7.90
2022-12-05T04:50:45.636Z,9.40
2022-12-05T04:51:44.680Z,9.10
2022-12-05T04:52:44.622Z,9.50
2022-12-05T04:53:44.613Z,8.00
2022-12-05T04:54:44.604Z,8.50
2022-12-05T04:55:44.580Z,9.50
2022-12-05T04:56:44.599Z,8.50
2022-12-05T04:57:44.586Z,9.10
2022-12-05T04:58:44.555Z,10.40
2022-12-05T04:59:44.536Z,9.20
2022-12-05T05:00:44.530Z,9.10
2022-12-05T05:01:44.591Z,8.50
2022-12-05T05:02:44.609Z,8.80
2022-12-05T05:03:44.522Z,9.50
2022-12-05T05:04:44.497Z,7.90
2022-12-05T05:05:44.468Z,7.70
2022-12-05T05:06:44.467Z,9.40
2022-12-05T05:07:44.568Z,8.70
2022-12-05T05:08:44.468Z,8.40
2022-12-05T05:09:44.425Z,10.00
2022-12-05T05:10:44.450Z,8.80
2022-12-05T05:11:44.426Z,9.40
2022-12-05T05:12:44.427Z,9.30
2022-12-05T05:13:44.392Z,8.40
2022-12-05T05:14:44.382Z,9.10
2022-12-05T05:15:44.443Z,10.10
2022-12-05T05:16:44.356Z,11.30
2022-12-05T05:17:44.345Z,8.90
2022-12-05T05:18:44.333Z,7.70
2022-12-05T05:19:44.348Z,8.10
2022-12-05T05:20:44.336Z,7.40
2022-12-05T05:21:44.295Z,8.80
2022-12-05T05:22:44.291Z,8.20
2022-12-05T05:23:44.291Z,9.00
2022-12-05T05:24:44.262Z,7.80
2022-12-05T05:25:44.276Z,7.80
2022-12-05T05:26:44.242Z,8.70
2022-12-05T05:27:44.221Z,8.20
2022-12-05T05:28:44.216Z,8.00
2022-12-05T05:29:44.232Z,8.20
2022-12-05T05:30:44.202Z,10.00
2022-12-05T05:31:44.230Z,8.30
2022-12-05T05:32:44.196Z,11.10
2022-12-05T05:33:44.151Z,8.90
2022-12-05T05:34:44.148Z,9.70
2022-12-05T05:35:44.138Z,8.80
2022-12-05T05:36:44.132Z,8.70
2022-12-05T05:37:44.134Z,9.20
2022-12-05T05:38:44.138Z,9.30
2022-12-05T05:39:44.108Z,8.40
2022-12-05T05:40:44.079Z,8.30
2022-12-05T05:41:44.065Z,10.60
2022-12-05T05:42:44.059Z,16.70
2022-12-05T05:43:44.079Z,16.80
2022-12-05T05:44:44.029Z,15.50
2022-12-05T05:45:44.023Z,18.30
2022-12-05T05:46:44.105Z,19.10
2022-12-05T05:47:44.023Z,11.00
2022-12-05T05:48:43.984Z,8.70
2022-12-05T05:49:44.014Z,10.10
2022-12-05T05:50:43.980Z,7.90
2022-12-05T05:51:43.964Z,11.00
2022-12-05T05:52:43.940Z,10.60
2022-12-05T05:53:43.933Z,9.20
2022-12-05T05:54:43.940Z,9.60
2022-12-05T05:55:43.931Z,9.60
2022-12-05T05:56:43.893Z,9.50
2022-12-05T05:57:43.898Z,9.90
2022-12-05T05:58:43.872Z,10.40
2022-12-05T05:59:43.890Z,10.00
2022-12-05T06:00:43.848Z,10.30
2022-12-05T06:01:43.838Z,10.30
2022-12-05T06:02:44.246Z,9.60
2022-12-05T06:03:44.258Z,8.70
2022-12-05T06:04:43.807Z,9.70
2022-12-05T06:05:47.489Z,12.00
2022-12-05T06:06:44.781Z,9.30
2022-12-05T06:07:43.854Z,11.90
2022-12-05T06:08:43.762Z,9.90
2022-12-05T06:09:43.761Z,11.60
2022-12-05T06:10:43.734Z,11.00
2022-12-05T06:11:43.756Z,10.40
2022-12-05T06:12:43.838Z,10.50
2022-12-05T06:13:43.707Z,9.40
2022-12-05T06:14:43.690Z,9.90
2022-12-05T06:15:43.718Z,12.30
2022-12-05T06:16:43.738Z,12.60
2022-12-05T06:17:43.684Z,9.20
2022-12-05T06:18:43.648Z,9.50
2022-12-05T06:19:43.662Z,11.20
2022-12-05T06:20:43.621Z,10.70
2022-12-05T06:21:43.641Z,10.90
2022-12-05T06:22:43.605Z,14.20
2022-12-05T06:23:43.595Z,16.60
2022-12-05T06:24:43.583Z,15.00
2022-12-05T06:25:43.591Z,12.10
2022-12-05T06:26:43.591Z,14.60
2022-12-05T06:27:43.569Z,17.30
2022-12-05T06:28:43.540Z,12.70
2022-12-05T06:29:43.570Z,10.70
2022-12-05T06:30:43.507Z,12.80
2022-12-05T06:31:43.605Z,16.20
2022-12-05T06:32:43.493Z,13.80
2022-12-05T06:33:43.505Z,11.70
2022-12-05T06:34:43.493Z,10.20
2022-12-05T06:35:43.456Z,11.00
2022-12-05T06:36:43.445Z,10.80
2022-12-05T06:37:43.447Z,33.80
2022-12-05T06:38:43.453Z,14.30
2022-12-05T06:39:43.411Z,15.60
2022-12-05T06:40:43.398Z,19.20
2022-12-05T06:41:43.392Z,16.60
2022-12-05T06:42:43.375Z,11.00
2022-12-05T06:43:43.393Z,9.40
2022-12-05T06:44:43.375Z,11.50
2022-12-05T06:45:43.454Z,9.50
2022-12-05T06:46:43.363Z,8.50
2022-12-05T06:47:43.322Z,9.00
2022-12-05T06:48:43.333Z,10.20
2022-12-05T06:49:43.327Z,10.50
2022-12-05T06:50:43.286Z,10.40
2022-12-05T06:51:43.297Z,10.10
2022-12-05T06:52:43.295Z,9.60
2022-12-05T06:53:43.264Z,10.70
2022-12-05T06:54:43.239Z,9.50
2022-12-05T06:55:43.237Z,11.20
2022-12-05T06:56:43.219Z,13.20
2022-12-05T06:57:43.234Z,14.80
2022-12-05T06:58:43.198Z,16.90
2022-12-05T06:59:43.207Z,12.00
2022-12-05T07:00:43.231Z,27.10
2022-12-05T07:01:43.333Z,15.80
2022-12-05T07:02:43.282Z,14.20
2022-12-05T07:03:43.170Z,10.60
2022-12-05T07:04:43.125Z,17.10
2022-12-05T07:05:43.122Z,11.80
2022-12-05T07:06:47.354Z,14.30
2022-12-05T07:07:44.236Z,12.40
2022-12-05T07:08:43.106Z,13.30
2022-12-05T07:09:43.075Z,11.10
2022-12-05T07:10:43.064Z,10.70
2022-12-05T07:11:43.081Z,11.10
2022-12-05T07:12:43.048Z,11.40
2022-12-05T07:13:43.033Z,13.80
2022-12-05T07:14:48.013Z,10.10
2022-12-05T07:15:44.034Z,12.40
2022-12-05T07:16:43.069Z,12.50
2022-12-05T07:17:42.989Z,9.90
2022-12-05T07:18:42.983Z,10.70
2022-12-05T07:19:43.022Z,9.60
2022-12-05T07:21:10.656Z,12.40
2022-12-05T07:21:43.947Z,10.40
2022-12-05T07:22:42.928Z,9.50
2022-12-05T07:23:42.926Z,9.50
2022-12-05T07:24:42.930Z,9.40
2022-12-05T07:25:42.900Z,11.60
2022-12-05T07:26:42.879Z,15.80
2022-12-05T07:27:42.909Z,26.50
2022-12-05T07:28:43.052Z,12.90
2022-12-05T07:29:42.858Z,9.80
2022-12-05T07:30:42.842Z,13.60
2022-12-05T07:31:42.976Z,12.70
2022-12-05T07:32:42.843Z,12.70
2022-12-05T07:33:42.852Z,13.50
2022-12-05T07:34:42.798Z,19.60
2022-12-05T07:35:42.812Z,8.60
2022-12-05T07:36:42.779Z,10.90
2022-12-05T07:37:43.886Z,9.90
2022-12-05T07:38:42.778Z,10.70
2022-12-05T07:39:42.778Z,9.30
2022-12-05T07:40:42.775Z,11.00
2022-12-05T07:41:42.727Z,10.70
2022-12-05T07:42:42.710Z,54.00
2022-12-05T07:43:42.730Z,166.80
2022-12-05T07:44:42.691Z,36.40
2022-12-05T07:45:42.715Z,106.30
2022-12-05T07:46:42.667Z,47.30
2022-12-05T07:47:42.800Z,113.80
2022-12-05T07:48:42.655Z,59.30
2022-12-05T07:49:42.680Z,28.60
2022-12-05T07:50:42.625Z,322.40
2022-12-05T07:51:42.619Z,252.40
2022-12-05T07:52:42.641Z,110.90
2022-12-05T07:53:42.627Z,150.40
2022-12-05T07:54:42.579Z,209.30
2022-12-05T07:55:42.610Z,108.60
2022-12-05T07:56:47.517Z,93.60
2022-12-05T07:57:43.552Z,110.40
2022-12-05T07:58:42.532Z,97.60
2022-12-05T07:59:42.549Z,93.80
2022-12-05T08:00:42.511Z,195.30
2022-12-05T08:01:42.557Z,46.60
2022-12-05T08:02:42.647Z,40.00
2022-12-05T08:03:42.505Z,78.60
2022-12-05T08:04:42.487Z,104.30
2022-12-05T08:05:42.479Z,86.60
2022-12-05T08:06:42.448Z,79.80
2022-12-05T08:07:42.541Z,55.80
2022-12-05T08:08:42.427Z,35.60
2022-12-05T08:09:42.429Z,46.30
2022-12-05T08:10:42.472Z,33.70
2022-12-05T08:11:42.390Z,19.80
2022-12-05T08:12:42.405Z,15.40
2022-12-05T08:13:42.375Z,17.20
2022-12-05T08:14:42.351Z,13.30
2022-12-05T08:15:42.348Z,15.10
2022-12-05T08:16:42.378Z,15.90
2022-12-05T08:17:42.389Z,13.60
2022-12-05T08:18:42.346Z,18.70
2022-12-05T08:19:42.325Z,10.40
2022-12-05T08:20:42.284Z,9.00
2022-12-05T08:21:42.314Z,11.10
2022-12-05T08:22:42.270Z,26.50
2022-12-05T08:23:42.258Z,22.00
2022-12-05T08:24:42.244Z,20.00
2022-12-05T08:25:42.272Z,16.00
2022-12-05T08:26:42.220Z,12.70
2022-12-05T08:27:42.225Z,11.20
2022-12-05T08:28:42.196Z,12.30
2022-12-05T08:29:42.196Z,11.70
2022-12-05T08:30:42.265Z,7.60
2022-12-05T08:31:42.179Z,6.90
2022-12-05T08:32:42.191Z,8.80
2022-12-05T08:33:42.153Z,8.40
2022-12-05T08:34:42.132Z,8.80
2022-12-05T08:35:42.142Z,8.90
2022-12-05T08:36:42.114Z,9.60
2022-12-05T08:37:42.142Z,8.00
2022-12-05T08:38:42.093Z,7.60
2022-12-05T08:39:42.080Z,8.70
2022-12-05T08:40:42.069Z,6.50
2022-12-05T08:41:42.103Z,6.80
2022-12-05T08:42:42.071Z,7.10
2022-12-05T08:43:42.041Z,7.10
2022-12-05T08:44:42.087Z,6.60
2022-12-05T08:45:42.161Z,7.90
2022-12-05T08:46:42.133Z,8.30
2022-12-05T08:47:42.029Z,6.90
2022-12-05T08:48:41.999Z,5.80
2022-12-05T08:49:42.013Z,6.10
2022-12-05T08:50:41.957Z,6.70
2022-12-05T08:51:41.965Z,6.60
2022-12-05T08:52:41.958Z,6.40
2022-12-05T08:53:44.578Z,9.60
2022-12-05T08:54:41.916Z,7.60
2022-12-05T08:55:41.899Z,7.30
2022-12-05T08:56:41.881Z,6.90
2022-12-05T08:57:41.926Z,6.00
2022-12-05T08:58:41.878Z,8.10
2022-12-05T08:59:41.865Z,5.70
2022-12-05T09:00:41.852Z,10.70
2022-12-05T09:01:41.928Z,28.90
2022-12-05T09:02:41.876Z,13.20
2022-12-05T09:03:47.291Z,13.60
2022-12-05T09:04:47.281Z,12.80
2022-12-05T09:05:42.817Z,8.50
2022-12-05T09:06:41.806Z,6.80
2022-12-05T09:07:41.830Z,7.00
2022-12-05T09:08:41.751Z,6.70
2022-12-05T09:09:41.748Z,7.30
2022-12-05T09:10:41.782Z,6.40
2022-12-05T09:11:41.718Z,6.60
2022-12-05T09:12:41.742Z,7.80
2022-12-05T09:13:41.699Z,7.20
2022-12-05T09:14:41.708Z,5.60
2022-12-05T09:15:41.739Z,7.60
2022-12-05T09:16:41.682Z,7.10
2022-12-05T09:17:41.660Z,6.00
2022-12-05T09:18:41.643Z,7.70
2022-12-05T09:19:41.646Z,7.30
2022-12-05T09:20:41.652Z,6.60
2022-12-05T09:21:41.658Z,4.30
2022-12-05T09:22:42.293Z,6.70
2022-12-05T09:23:41.676Z,5.80
2022-12-05T09:24:41.597Z,6.80
2022-12-05T09:25:41.580Z,6.00
2022-12-05T09:26:41.562Z,6.70
2022-12-05T09:27:41.570Z,7.40
2022-12-05T09:28:41.536Z,6.00
2022-12-05T09:29:41.553Z,6.20
2022-12-05T09:30:41.566Z,7.70
2022-12-05T09:31:41.611Z,5.10
2022-12-05T09:32:41.483Z,5.70
2022-12-05T09:33:41.497Z,7.30
2022-12-05T09:34:41.458Z,6.10
2022-12-05T09:35:41.549Z,6.60
2022-12-05T09:36:41.440Z,7.00
2022-12-05T09:37:41.454Z,6.20
2022-12-05T09:38:41.573Z,5.80
2022-12-05T09:39:41.435Z,6.10
2022-12-05T09:40:41.411Z,4.90
2022-12-05T09:41:41.429Z,5.60
2022-12-05T09:42:41.407Z,5.80
2022-12-05T09:43:41.373Z,6.40
2022-12-05T09:44:41.347Z,5.40
2022-12-05T09:45:41.364Z,5.70
2022-12-05T09:46:41.374Z,5.80
2022-12-05T09:47:41.349Z,4.80
2022-12-05T09:48:41.303Z,5.80
2022-12-05T09:49:41.317Z,5.60
2022-12-05T09:50:41.298Z,5.60
2022-12-05T09:51:41.278Z,7.10
2022-12-05T09:52:41.284Z,7.50
2022-12-05T09:53:41.277Z,7.20
2022-12-05T09:54:41.235Z,6.60
2022-12-05T09:55:41.251Z,8.00
2022-12-05T09:56:41.219Z,6.00
2022-12-05T09:57:41.225Z,6.30
2022-12-05T09:58:41.220Z,6.30
2022-12-05T09:59:41.183Z,6.30
2022-12-05T10:00:41.203Z,6.00
2022-12-05T10:01:41.194Z,7.90
2022-12-05T10:02:41.174Z,13.50
2022-12-05T10:03:41.160Z,10.30
2022-12-05T10:04:41.173Z,7.50
2022-12-05T10:05:41.113Z,6.20
2022-12-05T10:06:41.109Z,8.70
2022-12-05T10:07:41.183Z,8.10
2022-12-05T10:08:41.105Z,5.40
2022-12-05T10:09:41.068Z,6.00
2022-12-05T10:10:41.060Z,8.70
2022-12-05T10:11:41.117Z,6.90
2022-12-05T10:12:41.039Z,7.80
2022-12-05T10:13:41.056Z,6.40
2022-12-05T10:14:41.016Z,5.50
2022-12-05T10:15:45.041Z,5.80
2022-12-05T10:16:41.069Z,5.90
2022-12-05T10:17:40.987Z,4.60
2022-12-05T10:18:40.979Z,8.30
2022-12-05T10:19:40.983Z,5.30
2022-12-05T10:20:40.971Z,5.80
2022-12-05T10:21:40.938Z,10.00
2022-12-05T10:22:40.925Z,8.80
2022-12-05T10:23:56.963Z,6.70
2022-12-05T10:24:41.925Z,5.80
2022-12-05T10:25:40.923Z,6.30
2022-12-05T10:26:40.884Z,4.60
2022-12-05T10:27:40.887Z,9.40
2022-12-05T10:28:40.867Z,8.70
2022-12-05T10:29:40.843Z,9.70
2022-12-05T10:30:40.860Z,7.80
2022-12-05T10:31:40.868Z,6.30
2022-12-05T10:32:40.813Z,13.70
2022-12-05T10:33:40.818Z,9.30
2022-12-05T10:34:40.794Z,7.80
2022-12-05T10:35:40.781Z,5.50
2022-12-05T10:36:40.807Z,6.70
2022-12-05T10:37:40.756Z,9.20
2022-12-05T10:38:40.748Z,7.30
2022-12-05T10:39:40.732Z,28.20
2022-12-05T10:40:40.729Z,6.70
2022-12-05T10:41:40.729Z,9.00
2022-12-05T10:42:40.719Z,13.10
2022-12-05T10:43:40.707Z,14.40
2022-12-05T10:44:40.681Z,9.10
2022-12-05T10:45:40.704Z,8.20
2022-12-05T10:46:40.737Z,5.10
2022-12-05T10:47:40.657Z,9.40
2022-12-05T10:48:40.692Z,10.50
2022-12-05T10:49:40.661Z,10.50
2022-12-05T10:50:40.656Z,25.20
2022-12-05T10:51:40.614Z,17.50
2022-12-05T10:52:40.671Z,4.50
2022-12-05T10:53:40.606Z,6.00
2022-12-05T10:54:40.581Z,15.90
2022-12-05T10:55:40.559Z,5.80
2022-12-05T10:56:40.581Z,4.70
2022-12-05T10:57:40.569Z,9.70
2022-12-05T10:58:40.551Z,21.70
2022-12-05T10:59:40.526Z,6.60
2022-12-05T11:00:40.549Z,12.20
2022-12-05T11:01:40.557Z,6.70
2022-12-05T11:02:40.504Z,13.20
2022-12-05T11:03:40.483Z,6.20
2022-12-05T11:04:40.517Z,7.90
2022-12-05T11:05:40.474Z,17.20
2022-12-05T11:06:40.468Z,15.00
2022-12-05T11:07:40.494Z,7.60
2022-12-05T11:09:03.670Z,34.30
2022-12-05T11:09:41.419Z,1999.90
2022-12-05T11:10:40.389Z,1796.70
2022-12-05T11:11:40.382Z,707.30
2022-12-05T11:12:40.368Z,116.10
2022-12-05T11:13:40.351Z,52.00
2022-12-05T11:14:40.348Z,28.00
2022-12-05T11:15:40.465Z,21.80
2022-12-05T11:16:40.368Z,7.50
2022-12-05T11:17:40.315Z,13.70
2022-12-05T11:18:40.298Z,25.30
2022-12-05T11:19:40.285Z,24.10
2022-12-05T11:20:40.318Z,11.10
2022-12-05T11:21:40.273Z,8.50
2022-12-05T11:22:44.341Z,4.90
2022-12-05T11:23:41.248Z,12.60
2022-12-05T11:24:40.258Z,6.20
2022-12-05T11:25:40.217Z,7.20
2022-12-05T11:26:40.210Z,6.80
2022-12-05T11:27:40.208Z,5.60
2022-12-05T11:28:40.187Z,5.50
2022-12-05T11:29:40.217Z,7.80
2022-12-05T11:30:40.183Z,4.40
2022-12-05T11:31:40.208Z,2.80
2022-12-05T11:32:40.142Z,6.70
2022-12-05T11:33:40.127Z,3.90
2022-12-05T11:34:40.124Z,6.50
2022-12-05T11:35:40.138Z,5.30
2022-12-05T11:36:40.101Z,5.20
2022-12-05T11:37:40.103Z,5.00
2022-12-05T11:38:40.078Z,4.20
2022-12-05T11:39:40.067Z,3.90
2022-12-05T11:40:40.179Z,4.00
2022-12-05T11:41:40.042Z,3.80
2022-12-05T11:42:40.035Z,3.70
2022-12-05T11:43:40.032Z,3.20
2022-12-05T11:44:40.016Z,2.60
2022-12-05T11:45:40.021Z,3.40
2022-12-05T11:46:40.042Z,3.90
2022-12-05T11:47:40.020Z,3.30
2022-12-05T11:48:39.967Z,3.00
2022-12-05T11:49:39.951Z,3.90
2022-12-05T11:50:39.973Z,3.00
2022-12-05T11:51:39.942Z,3.40
2022-12-05T11:52:40.959Z,3.70
2022-12-05T11:53:39.931Z,3.30
2022-12-05T11:55:04.554Z,3.50
2022-12-05T11:55:40.903Z,3.00
2022-12-05T11:56:39.883Z,3.00
2022-12-05T11:57:39.878Z,4.00
2022-12-05T11:58:39.853Z,3.80
2022-12-05T11:59:39.852Z,4.20
2022-12-05T12:00:39.853Z,3.60
2022-12-05T12:01:39.886Z,2.50
2022-12-05T12:02:39.974Z,3.30
2022-12-05T12:03:39.870Z,3.30
2022-12-05T12:04:39.783Z,4.40
2022-12-05T12:05:39.819Z,3.80
2022-12-05T12:06:39.766Z,3.20
2022-12-05T12:07:39.779Z,2.80
2022-12-05T12:08:39.765Z,3.80
2022-12-05T12:09:39.728Z,2.70
2022-12-05T12:10:39.722Z,3.40
2022-12-05T12:11:39.720Z,3.80
2022-12-05T12:12:39.697Z,3.00
2022-12-05T12:13:39.705Z,2.60
2022-12-05T12:14:39.674Z,3.60
2022-12-05T12:15:39.658Z,3.60
2022-12-05T12:16:39.773Z,4.10
2022-12-05T12:17:39.651Z,2.40
2022-12-05T12:18:39.632Z,3.10
2022-12-05T12:19:39.663Z,2.70
2022-12-05T12:20:39.616Z,2.80
2022-12-05T12:21:39.612Z,4.10
2022-12-05T12:22:39.603Z,5.80
2022-12-05T12:23:39.729Z,3.80
2022-12-05T12:24:39.730Z,3.90
2022-12-05T12:25:39.613Z,3.60
2022-12-05T12:26:39.771Z,3.80
2022-12-05T12:27:39.521Z,5.60
2022-12-05T12:28:39.537Z,5.80
2022-12-05T12:29:39.507Z,4.00
2022-12-05T12:30:39.506Z,4.20
2022-12-05T12:31:39.582Z,3.90
2022-12-05T12:32:39.474Z,2.80
2022-12-05T12:33:39.493Z,3.20
2022-12-05T12:34:39.451Z,2.70
2022-12-05T12:35:39.454Z,6.10
2022-12-05T12:36:39.443Z,3.40
2022-12-05T12:37:39.414Z,22.50
2022-12-05T12:38:39.425Z,49.10
2022-12-05T12:39:39.401Z,5.20
2022-12-05T12:40:39.385Z,2.00
2022-12-05T12:41:39.371Z,2.30
2022-12-05T12:42:39.359Z,3.10
2022-12-05T12:43:54.964Z,2.60
2022-12-05T12:44:40.339Z,2.20
2022-12-05T12:45:39.386Z,2.00
2022-12-05T12:46:39.336Z,2.40
2022-12-05T12:47:39.310Z,1.90
2022-12-05T12:48:39.305Z,1.70
2022-12-05T12:49:39.273Z,2.10
2022-12-05T12:50:43.605Z,2.00
2022-12-05T12:51:39.269Z,2.50
2022-12-05T12:52:39.245Z,2.60
2022-12-05T12:53:39.288Z,1.80
2022-12-05T12:55:03.910Z,2.00
2022-12-05T12:55:40.205Z,2.70
2022-12-05T12:56:39.212Z,3.30
2022-12-05T12:57:39.185Z,3.50
2022-12-05T12:58:39.185Z,2.60
2022-12-05T12:59:39.224Z,2.10
2022-12-05T13:00:39.208Z,1.70
2022-12-05T13:01:39.213Z,2.30
2022-12-05T13:02:39.245Z,2.80
2022-12-05T13:03:39.115Z,2.60
2022-12-05T13:04:39.127Z,2.70
2022-12-05T13:05:39.126Z,2.20
2022-12-05T13:06:39.086Z,2.20
2022-12-05T13:07:39.837Z,3.00